PWSweather.com
Personal Weather Stations
Station Observations
GEELONGWX1
Bell Post Hill, GeelongAU

Bell Post HillGeelongAU

Lat: -38.101, Lon: 144.326

Elevation: 204

Station Type: Davis Vantage Pro2

http://www.geelongweather.com

High Low Average
Temperature 58.1°F14.5°C 46.5°F8.1°C 50.7°F10.4°C
Dew Point 48.5°F9.2°C 43.1°F6.2°C 45.3°F7.4°C
Winds 18.0 mph 29.0 kmh 3.0 mph 4.8 kmh 10.0 mph WNW16.1 kmh WNW
Wind Gusts 28.0 mph45.1 kmh 3.0 mph4.8 kmh 17.0 mph27.4 kmh
Humidity 91% 64% 82%
Pressure 29.69 in1005.4 mb 29.51 in999.3 mb -
Precipitation 0.04 in1.0 mm - -
Hour Temp Dew Point Humidity Winds Wind Gusts Pressure Precip Precip Rate Daily Precip Total
12:00 AM 47.8°F8.8°C 44.4°F6.9°C 88% 7.0 mph NW11.3 kmh NW 10.0 mph16.1 kmh 29.69 in1005.4 mb 0.00 in0.0 mm 0.00 in/hr0.0 mm/hr 0.00 in0.0 mm
12:10 AM 47.9°F8.8°C 44.5°F6.9°C 88% 9.0 mph WSW14.5 kmh WSW 14.0 mph22.5 kmh 29.69 in1005.4 mb 0.00 in0.0 mm 0.00 in/hr0.0 mm/hr 0.00 in0.0 mm
12:20 AM 48.2°F9.0°C 44.5°F6.9°C 87% 7.0 mph W11.3 kmh W 16.0 mph25.7 kmh 29.69 in1005.4 mb 0.00 in0.0 mm 0.00 in/hr0.0 mm/hr 0.00 in0.0 mm
12:30 AM 48.1°F8.9°C 44.4°F6.9°C 87% 7.0 mph W11.3 kmh W 12.0 mph19.3 kmh 29.69 in1005.4 mb 0.00 in0.0 mm 0.00 in/hr0.0 mm/hr 0.00 in0.0 mm
12:50 AM 47.8°F8.8°C 44.4°F6.9°C 88% 10.0 mph WNW16.1 kmh WNW 13.0 mph20.9 kmh 29.68 in1005.1 mb 0.00 in0.0 mm 0.00 in/hr0.0 mm/hr 0.00 in0.0 mm
01:00 AM 47.6°F8.7°C 44.2°F6.8°C 88% 7.0 mph N11.3 kmh N 12.0 mph19.3 kmh 29.68 in1005.1 mb 0.00 in0.0 mm 0.00 in/hr0.0 mm/hr 0.00 in0.0 mm
01:10 AM 47.2°F8.4°C 43.9°F6.6°C 88% 3.0 mph N4.8 kmh N 3.0 mph4.8 kmh 29.68 in1005.1 mb 0.00 in0.0 mm 0.00 in/hr0.0 mm/hr 0.00 in0.0 mm
01:20 AM 47.0°F8.3°C 43.9°F6.6°C 89% 6.0 mph W9.7 kmh W 12.0 mph19.3 kmh 29.68 in1005.1 mb 0.00 in0.0 mm 0.00 in/hr0.0 mm/hr 0.00 in0.0 mm
01:30 AM 46.9°F8.3°C 43.8°F6.6°C 89% 5.0 mph N8.0 kmh N 12.0 mph19.3 kmh 29.68 in1005.1 mb 0.00 in0.0 mm 0.00 in/hr0.0 mm/hr 0.00 in0.0 mm
01:40 AM 47.0°F8.3°C 43.9°F6.6°C 89% 8.0 mph WSW12.9 kmh WSW 16.0 mph25.7 kmh 29.67 in1004.7 mb 0.00 in0.0 mm 0.00 in/hr0.0 mm/hr 0.00 in0.0 mm
01:50 AM 47.1°F8.4°C 44.0°F6.7°C 89% 9.0 mph W14.5 kmh W 13.0 mph20.9 kmh 29.67 in1004.7 mb 0.00 in0.0 mm 0.00 in/hr0.0 mm/hr 0.00 in0.0 mm
02:00 AM 47.2°F8.4°C 44.1°F6.7°C 89% 5.0 mph W8.0 kmh W 17.0 mph27.4 kmh 29.67 in1004.7 mb 0.00 in0.0 mm 0.00 in/hr0.0 mm/hr 0.00 in0.0 mm
02:10 AM 47.5°F8.6°C 44.5°F6.9°C 89% 9.0 mph WNW14.5 kmh WNW 15.0 mph24.1 kmh 29.67 in1004.7 mb 0.00 in0.0 mm 0.00 in/hr0.0 mm/hr 0.00 in0.0 mm
02:20 AM 47.7°F8.7°C 44.3°F6.8°C 88% 9.0 mph W14.5 kmh W 20.0 mph32.2 kmh 29.66 in1004.4 mb 0.00 in0.0 mm 0.00 in/hr0.0 mm/hr 0.00 in0.0 mm
02:30 AM 47.7°F8.7°C 44.6°F7.0°C 89% 9.0 mph NW14.5 kmh NW 17.0 mph27.4 kmh 29.66 in1004.4 mb 0.00 in0.0 mm 0.00 in/hr0.0 mm/hr 0.00 in0.0 mm
02:40 AM 47.7°F8.7°C 44.6°F7.0°C 89% 9.0 mph NW14.5 kmh NW 12.0 mph19.3 kmh 29.67 in1004.7 mb 0.00 in0.0 mm 0.00 in/hr0.0 mm/hr 0.00 in0.0 mm
02:50 AM 47.6°F8.7°C 44.2°F6.8°C 88% 10.0 mph WNW16.1 kmh WNW 15.0 mph24.1 kmh 29.66 in1004.4 mb 0.00 in0.0 mm 0.00 in/hr0.0 mm/hr 0.00 in0.0 mm
03:00 AM 47.8°F8.8°C 44.4°F6.9°C 88% 12.0 mph NW19.3 kmh NW 18.0 mph29.0 kmh 29.66 in1004.4 mb 0.00 in0.0 mm 0.00 in/hr0.0 mm/hr 0.00 in0.0 mm
03:10 AM 48.0°F8.9°C 44.6°F7.0°C 88% 12.0 mph WNW19.3 kmh WNW 15.0 mph24.1 kmh 29.66 in1004.4 mb 0.00 in0.0 mm 0.00 in/hr0.0 mm/hr 0.00 in0.0 mm
03:20 AM 48.1°F8.9°C 44.4°F6.9°C 87% 10.0 mph NW16.1 kmh NW 16.0 mph25.7 kmh 29.66 in1004.4 mb 0.00 in0.0 mm 0.00 in/hr0.0 mm/hr 0.00 in0.0 mm
03:30 AM 48.1°F8.9°C 44.7°F7.1°C 88% 10.0 mph W16.1 kmh W 18.0 mph29.0 kmh 29.66 in1004.4 mb 0.00 in0.0 mm 0.00 in/hr0.0 mm/hr 0.00 in0.0 mm
03:40 AM 48.2°F9.0°C 44.8°F7.1°C 88% 10.0 mph NW16.1 kmh NW 15.0 mph24.1 kmh 29.66 in1004.4 mb 0.00 in0.0 mm 0.00 in/hr0.0 mm/hr 0.00 in0.0 mm
03:50 AM 48.3°F9.1°C 44.9°F7.2°C 88% 13.0 mph WNW20.9 kmh WNW 20.0 mph32.2 kmh 29.65 in1004.1 mb 0.00 in0.0 mm 0.00 in/hr0.0 mm/hr 0.00 in0.0 mm
04:00 AM 48.4°F9.1°C 44.7°F7.1°C 87% 9.0 mph W14.5 kmh W 22.0 mph35.4 kmh 29.65 in1004.1 mb 0.00 in0.0 mm 0.00 in/hr0.0 mm/hr 0.00 in0.0 mm
04:10 AM 48.5°F9.2°C 44.8°F7.1°C 87% 13.0 mph NW20.9 kmh NW 16.0 mph25.7 kmh 29.65 in1004.1 mb 0.00 in0.0 mm 0.00 in/hr0.0 mm/hr 0.00 in0.0 mm
04:20 AM 48.5°F9.2°C 44.8°F7.1°C 87% 14.0 mph W22.5 kmh W 22.0 mph35.4 kmh 29.64 in1003.7 mb 0.00 in0.0 mm 0.00 in/hr0.0 mm/hr 0.00 in0.0 mm
04:30 AM 48.4°F9.1°C 44.7°F7.1°C 87% 12.0 mph WNW19.3 kmh WNW 21.0 mph33.8 kmh 29.64 in1003.7 mb 0.00 in0.0 mm 0.00 in/hr0.0 mm/hr 0.00 in0.0 mm
04:40 AM 48.5°F9.2°C 45.4°F7.4°C 89% 13.0 mph W20.9 kmh W 20.0 mph32.2 kmh 29.64 in1003.7 mb 0.00 in0.0 mm 0.00 in/hr0.0 mm/hr 0.00 in0.0 mm
04:50 AM 48.7°F9.3°C 45.3°F7.4°C 88% 9.0 mph NW14.5 kmh NW 17.0 mph27.4 kmh 29.64 in1003.7 mb 0.00 in0.0 mm 0.00 in/hr0.0 mm/hr 0.00 in0.0 mm
05:00 AM 48.7°F9.3°C 45.6°F7.6°C 89% 10.0 mph WNW16.1 kmh WNW 14.0 mph22.5 kmh 29.64 in1003.7 mb 0.00 in0.0 mm 0.00 in/hr0.0 mm/hr 0.00 in0.0 mm
05:10 AM 48.6°F9.2°C 45.8°F7.7°C 90% 10.0 mph WNW16.1 kmh WNW 14.0 mph22.5 kmh 29.64 in1003.7 mb 0.00 in0.0 mm 0.00 in/hr0.0 mm/hr 0.00 in0.0 mm
05:20 AM 48.3°F9.1°C 45.8°F7.7°C 91% 8.0 mph WNW12.9 kmh WNW 12.0 mph19.3 kmh 29.64 in1003.7 mb 0.00 in0.0 mm 0.00 in/hr0.0 mm/hr 0.00 in0.0 mm
05:30 AM 48.4°F9.1°C 45.6°F7.6°C 90% 8.0 mph NW12.9 kmh NW 12.0 mph19.3 kmh 29.64 in1003.7 mb 0.00 in0.0 mm 0.00 in/hr0.0 mm/hr 0.00 in0.0 mm
05:40 AM 48.5°F9.2°C 45.4°F7.4°C 89% 9.0 mph NW14.5 kmh NW 12.0 mph19.3 kmh 29.64 in1003.7 mb 0.00 in0.0 mm 0.00 in/hr0.0 mm/hr 0.00 in0.0 mm
05:50 AM 48.7°F9.3°C 45.3°F7.4°C 88% 8.0 mph WNW12.9 kmh WNW 12.0 mph19.3 kmh 29.64 in1003.7 mb 0.00 in0.0 mm 0.00 in/hr0.0 mm/hr 0.00 in0.0 mm
06:00 AM 48.9°F9.4°C 45.5°F7.5°C 88% 8.0 mph WNW12.9 kmh WNW 12.0 mph19.3 kmh 29.64 in1003.7 mb 0.00 in0.0 mm 0.00 in/hr0.0 mm/hr 0.00 in0.0 mm
06:10 AM 49.0°F9.4°C 45.3°F7.4°C 87% 6.0 mph W9.7 kmh W 7.0 mph11.3 kmh 29.64 in1003.7 mb 0.00 in0.0 mm 0.00 in/hr0.0 mm/hr 0.00 in0.0 mm
06:20 AM 48.9°F9.4°C 44.9°F7.2°C 86% 9.0 mph WNW14.5 kmh WNW 13.0 mph20.9 kmh 29.64 in1003.7 mb 0.00 in0.0 mm 0.00 in/hr0.0 mm/hr 0.00 in0.0 mm
06:30 AM 48.8°F9.3°C 44.8°F7.1°C 86% 12.0 mph NW19.3 kmh NW 15.0 mph24.1 kmh 29.64 in1003.7 mb 0.00 in0.0 mm 0.00 in/hr0.0 mm/hr 0.00 in0.0 mm
06:40 AM 48.8°F9.3°C 44.8°F7.1°C 86% 10.0 mph NW16.1 kmh NW 14.0 mph22.5 kmh 29.64 in1003.7 mb 0.00 in0.0 mm 0.00 in/hr0.0 mm/hr 0.00 in0.0 mm
06:50 AM 48.8°F9.3°C 44.8°F7.1°C 86% 9.0 mph W14.5 kmh W 15.0 mph24.1 kmh 29.64 in1003.7 mb 0.00 in0.0 mm 0.00 in/hr0.0 mm/hr 0.00 in0.0 mm
07:00 AM 48.7°F9.3°C 44.7°F7.1°C 86% 10.0 mph N16.1 kmh N 15.0 mph24.1 kmh 29.64 in1003.7 mb 0.00 in0.0 mm 0.00 in/hr0.0 mm/hr 0.00 in0.0 mm
07:10 AM 48.8°F9.3°C 44.8°F7.1°C 86% 8.0 mph NW12.9 kmh NW 12.0 mph19.3 kmh 29.64 in1003.7 mb 0.00 in0.0 mm 0.00 in/hr0.0 mm/hr 0.00 in0.0 mm
07:20 AM 49.0°F9.4°C 44.7°F7.1°C 85% 9.0 mph NW14.5 kmh NW 13.0 mph20.9 kmh 29.64 in1003.7 mb 0.00 in0.0 mm 0.00 in/hr0.0 mm/hr 0.00 in0.0 mm
07:30 AM 49.2°F9.6°C 44.9°F7.2°C 85% 13.0 mph WNW20.9 kmh WNW 17.0 mph27.4 kmh 29.64 in1003.7 mb 0.00 in0.0 mm 0.00 in/hr0.0 mm/hr 0.00 in0.0 mm
07:40 AM 49.1°F9.5°C 44.8°F7.1°C 85% 10.0 mph WNW16.1 kmh WNW 13.0 mph20.9 kmh 29.64 in1003.7 mb 0.00 in0.0 mm 0.00 in/hr0.0 mm/hr 0.00 in0.0 mm
07:50 AM 49.1°F9.5°C 44.8°F7.1°C 85% 9.0 mph WNW14.5 kmh WNW 13.0 mph20.9 kmh 29.63 in1003.4 mb 0.00 in0.0 mm 0.00 in/hr0.0 mm/hr 0.00 in0.0 mm
08:00 AM 49.1°F9.5°C 44.8°F7.1°C 85% 9.0 mph NW14.5 kmh NW 13.0 mph20.9 kmh 29.63 in1003.4 mb 0.00 in0.0 mm 0.00 in/hr0.0 mm/hr 0.00 in0.0 mm
08:10 AM 49.1°F9.5°C 44.5°F6.9°C 84% 10.0 mph NW16.1 kmh NW 17.0 mph27.4 kmh 29.63 in1003.4 mb 0.00 in0.0 mm 0.00 in/hr0.0 mm/hr 0.00 in0.0 mm
08:20 AM 49.3°F9.6°C 44.7°F7.1°C 84% 10.0 mph NW16.1 kmh NW 17.0 mph27.4 kmh 29.63 in1003.4 mb 0.00 in0.0 mm 0.00 in/hr0.0 mm/hr 0.00 in0.0 mm
08:30 AM 49.5°F9.7°C 44.5°F6.9°C 83% 7.0 mph NW11.3 kmh NW 14.0 mph22.5 kmh 29.63 in1003.4 mb 0.00 in0.0 mm 0.00 in/hr0.0 mm/hr 0.00 in0.0 mm
08:40 AM 49.8°F9.9°C 44.8°F7.1°C 83% 6.0 mph NW9.7 kmh NW 12.0 mph19.3 kmh 29.63 in1003.4 mb 0.00 in0.0 mm 0.00 in/hr0.0 mm/hr 0.00 in0.0 mm
08:50 AM 50.2°F10.1°C 44.9°F7.2°C 82% 6.0 mph NW9.7 kmh NW 12.0 mph19.3 kmh 29.63 in1003.4 mb 0.00 in0.0 mm 0.00 in/hr0.0 mm/hr 0.00 in0.0 mm
09:00 AM 50.5°F10.3°C 45.2°F7.3°C 82% 6.0 mph WNW9.7 kmh WNW 12.0 mph19.3 kmh 29.63 in1003.4 mb 0.00 in0.0 mm 0.00 in/hr0.0 mm/hr 0.00 in0.0 mm
09:10 AM 51.4°F10.8°C 45.8°F7.7°C 81% 3.0 mph NW4.8 kmh NW 9.0 mph14.5 kmh 29.63 in1003.4 mb 0.00 in0.0 mm 0.00 in/hr0.0 mm/hr 0.00 in0.0 mm
09:20 AM 52.5°F11.4°C 45.8°F7.7°C 78% 8.0 mph NW12.9 kmh NW 12.0 mph19.3 kmh 29.63 in1003.4 mb 0.00 in0.0 mm 0.00 in/hr0.0 mm/hr 0.00 in0.0 mm
09:30 AM 52.8°F11.6°C 46.1°F7.8°C 78% 7.0 mph NW11.3 kmh NW 17.0 mph27.4 kmh 29.63 in1003.4 mb 0.00 in0.0 mm 0.00 in/hr0.0 mm/hr 0.00 in0.0 mm
09:40 AM 52.7°F11.5°C 46.0°F7.8°C 78% 5.0 mph N8.0 kmh N 12.0 mph19.3 kmh 29.63 in1003.4 mb 0.00 in0.0 mm 0.00 in/hr0.0 mm/hr 0.00 in0.0 mm
09:50 AM 52.7°F11.5°C 46.0°F7.8°C 78% 12.0 mph NNW19.3 kmh NNW 15.0 mph24.1 kmh 29.63 in1003.4 mb 0.00 in0.0 mm 0.00 in/hr0.0 mm/hr 0.00 in0.0 mm
10:00 AM 52.6°F11.4°C 45.6°F7.6°C 77% 6.0 mph NW9.7 kmh NW 10.0 mph16.1 kmh 29.63 in1003.4 mb 0.00 in0.0 mm 0.00 in/hr0.0 mm/hr 0.00 in0.0 mm
10:10 AM 52.6°F11.4°C 45.6°F7.6°C 77% 8.0 mph WNW12.9 kmh WNW 18.0 mph29.0 kmh 29.63 in1003.4 mb 0.00 in0.0 mm 0.00 in/hr0.0 mm/hr 0.00 in0.0 mm
10:20 AM 53.2°F11.8°C 46.2°F7.9°C 77% 12.0 mph WSW19.3 kmh WSW 20.0 mph32.2 kmh 29.63 in1003.4 mb 0.00 in0.0 mm 0.00 in/hr0.0 mm/hr 0.00 in0.0 mm
10:30 AM 53.8°F12.1°C 46.8°F8.2°C 77% 9.0 mph WNW14.5 kmh WNW 14.0 mph22.5 kmh 29.63 in1003.4 mb 0.00 in0.0 mm 0.00 in/hr0.0 mm/hr 0.00 in0.0 mm
10:40 AM 54.3°F12.4°C 46.9°F8.3°C 76% 8.0 mph N12.9 kmh N 12.0 mph19.3 kmh 29.63 in1003.4 mb 0.00 in0.0 mm 0.00 in/hr0.0 mm/hr 0.00 in0.0 mm
10:50 AM 54.7°F12.6°C 46.9°F8.3°C 75% 12.0 mph NW19.3 kmh NW 20.0 mph32.2 kmh 29.63 in1003.4 mb 0.00 in0.0 mm 0.00 in/hr0.0 mm/hr 0.00 in0.0 mm
11:00 AM 55.7°F13.2°C 47.2°F8.4°C 73% 12.0 mph WNW19.3 kmh WNW 20.0 mph32.2 kmh 29.63 in1003.4 mb 0.00 in0.0 mm 0.00 in/hr0.0 mm/hr 0.00 in0.0 mm
11:10 AM 56.0°F13.3°C 47.8°F8.8°C 74% 15.0 mph WNW24.1 kmh WNW 24.0 mph38.6 kmh 29.62 in1003.0 mb 0.00 in0.0 mm 0.00 in/hr0.0 mm/hr 0.00 in0.0 mm
11:20 AM 55.9°F13.3°C 47.8°F8.8°C 74% 9.0 mph NW14.5 kmh NW 15.0 mph24.1 kmh 29.61 in1002.7 mb 0.00 in0.0 mm 0.00 in/hr0.0 mm/hr 0.00 in0.0 mm
11:30 AM 56.7°F13.7°C 48.1°F8.9°C 73% 13.0 mph NNW20.9 kmh NNW 20.0 mph32.2 kmh 29.61 in1002.7 mb 0.01 in0.3 mm 0.06 in/hr1.5 mm/hr 0.01 in0.3 mm
11:40 AM 57.5°F14.2°C 47.8°F8.8°C 70% 10.0 mph WNW16.1 kmh WNW 20.0 mph32.2 kmh 29.60 in1002.4 mb 0.00 in0.0 mm 0.00 in/hr0.0 mm/hr 0.01 in0.3 mm
11:50 AM 57.5°F14.2°C 47.4°F8.6°C 69% 10.0 mph NW16.1 kmh NW 22.0 mph35.4 kmh 29.59 in1002.0 mb 0.00 in0.0 mm 0.00 in/hr0.0 mm/hr 0.01 in0.3 mm
12:00 PM 56.7°F13.7°C 46.7°F8.2°C 69% 13.0 mph WNW20.9 kmh WNW 17.0 mph27.4 kmh 29.59 in1002.0 mb 0.00 in0.0 mm 0.00 in/hr0.0 mm/hr 0.01 in0.3 mm
12:10 PM 56.9°F13.8°C 46.8°F8.2°C 69% 10.0 mph NW16.1 kmh NW 23.0 mph37.0 kmh 29.58 in1001.7 mb 0.00 in0.0 mm 0.00 in/hr0.0 mm/hr 0.01 in0.3 mm
12:20 PM 56.6°F13.7°C 46.2°F7.9°C 68% 14.0 mph WSW22.5 kmh WSW 25.0 mph40.2 kmh 29.57 in1001.4 mb 0.00 in0.0 mm 0.00 in/hr0.0 mm/hr 0.01 in0.3 mm
12:30 PM 57.0°F13.9°C 46.5°F8.1°C 68% 13.0 mph W20.9 kmh W 25.0 mph40.2 kmh 29.57 in1001.4 mb 0.00 in0.0 mm 0.00 in/hr0.0 mm/hr 0.01 in0.3 mm
12:40 PM 57.6°F14.2°C 46.3°F7.9°C 66% 17.0 mph WSW27.4 kmh WSW 28.0 mph45.1 kmh 29.56 in1001.0 mb 0.00 in0.0 mm 0.00 in/hr0.0 mm/hr 0.01 in0.3 mm
12:50 PM 57.8°F14.3°C 46.9°F8.3°C 67% 10.0 mph NW16.1 kmh NW 18.0 mph29.0 kmh 29.55 in1000.7 mb 0.00 in0.0 mm 0.00 in/hr0.0 mm/hr 0.01 in0.3 mm
01:00 PM 58.1°F14.5°C 46.0°F7.8°C 64% 13.0 mph NNW20.9 kmh NNW 20.0 mph32.2 kmh 29.55 in1000.7 mb 0.00 in0.0 mm 0.00 in/hr0.0 mm/hr 0.01 in0.3 mm
01:10 PM 57.9°F14.4°C 46.6°F8.1°C 66% 15.0 mph WNW24.1 kmh WNW 24.0 mph38.6 kmh 29.54 in1000.3 mb 0.00 in0.0 mm 0.00 in/hr0.0 mm/hr 0.01 in0.3 mm
01:20 PM 57.7°F14.3°C 46.4°F8.0°C 66% 13.0 mph WNW20.9 kmh WNW 17.0 mph27.4 kmh 29.53 in1000.0 mb 0.00 in0.0 mm 0.00 in/hr0.0 mm/hr 0.01 in0.3 mm
01:30 PM 57.3°F14.1°C 46.9°F8.3°C 68% 16.0 mph NW25.7 kmh NW 26.0 mph41.8 kmh 29.53 in1000.0 mb 0.00 in0.0 mm 0.00 in/hr0.0 mm/hr 0.01 in0.3 mm
01:40 PM 57.2°F14.0°C 46.8°F8.2°C 68% 15.0 mph WNW24.1 kmh WNW 22.0 mph35.4 kmh 29.53 in1000.0 mb 0.00 in0.0 mm 0.00 in/hr0.0 mm/hr 0.01 in0.3 mm
01:50 PM 57.3°F14.1°C 46.4°F8.0°C 67% 10.0 mph W16.1 kmh W 15.0 mph24.1 kmh 29.53 in1000.0 mb 0.00 in0.0 mm 0.00 in/hr0.0 mm/hr 0.01 in0.3 mm
02:00 PM 56.7°F13.7°C 47.4°F8.6°C 71% 15.0 mph W24.1 kmh W 21.0 mph33.8 kmh 29.53 in1000.0 mb 0.00 in0.0 mm 0.00 in/hr0.0 mm/hr 0.01 in0.3 mm
02:10 PM 55.3°F12.9°C 48.2°F9.0°C 77% 15.0 mph WNW24.1 kmh WNW 20.0 mph32.2 kmh 29.53 in1000.0 mb 0.00 in0.0 mm 0.00 in/hr0.0 mm/hr 0.01 in0.3 mm
02:20 PM 54.8°F12.7°C 48.1°F8.9°C 78% 15.0 mph WNW24.1 kmh WNW 24.0 mph38.6 kmh 29.53 in1000.0 mb 0.00 in0.0 mm 0.00 in/hr0.0 mm/hr 0.01 in0.3 mm
02:30 PM 54.4°F12.4°C 48.3°F9.1°C 80% 13.0 mph NW20.9 kmh NW 16.0 mph25.7 kmh 29.53 in1000.0 mb 0.00 in0.0 mm 0.00 in/hr0.0 mm/hr 0.01 in0.3 mm
02:40 PM 54.9°F12.7°C 48.5°F9.2°C 79% 13.0 mph NW20.9 kmh NW 22.0 mph35.4 kmh 29.52 in999.7 mb 0.00 in0.0 mm 0.00 in/hr0.0 mm/hr 0.01 in0.3 mm
02:50 PM 55.1°F12.8°C 48.4°F9.1°C 78% 15.0 mph NW24.1 kmh NW 25.0 mph40.2 kmh 29.52 in999.7 mb 0.00 in0.0 mm 0.00 in/hr0.0 mm/hr 0.01 in0.3 mm
03:00 PM 54.9°F12.7°C 47.8°F8.8°C 77% 13.0 mph WNW20.9 kmh WNW 16.0 mph25.7 kmh 29.52 in999.7 mb 0.00 in0.0 mm 0.00 in/hr0.0 mm/hr 0.01 in0.3 mm
03:10 PM 54.5°F12.5°C 46.0°F7.8°C 73% 16.0 mph WNW25.7 kmh WNW 20.0 mph32.2 kmh 29.51 in999.3 mb 0.00 in0.0 mm 0.00 in/hr0.0 mm/hr 0.01 in0.3 mm
03:20 PM 54.2°F12.3°C 45.7°F7.6°C 73% 16.0 mph W25.7 kmh W 20.0 mph32.2 kmh 29.51 in999.3 mb 0.00 in0.0 mm 0.00 in/hr0.0 mm/hr 0.01 in0.3 mm
03:30 PM 54.0°F12.2°C 46.3°F7.9°C 75% 18.0 mph WNW29.0 kmh WNW 25.0 mph40.2 kmh 29.51 in999.3 mb 0.00 in0.0 mm 0.00 in/hr0.0 mm/hr 0.01 in0.3 mm
03:40 PM 53.9°F12.2°C 45.8°F7.7°C 74% 13.0 mph NW20.9 kmh NW 20.0 mph32.2 kmh 29.51 in999.3 mb 0.00 in0.0 mm 0.00 in/hr0.0 mm/hr 0.01 in0.3 mm
03:50 PM 53.7°F12.1°C 45.6°F7.6°C 74% 17.0 mph WNW27.4 kmh WNW 23.0 mph37.0 kmh 29.51 in999.3 mb 0.00 in0.0 mm 0.00 in/hr0.0 mm/hr 0.01 in0.3 mm
04:00 PM 53.6°F12.0°C 45.9°F7.7°C 75% 12.0 mph W19.3 kmh W 22.0 mph35.4 kmh 29.51 in999.3 mb 0.00 in0.0 mm 0.00 in/hr0.0 mm/hr 0.01 in0.3 mm
04:10 PM 53.4°F11.9°C 46.1°F7.8°C 76% 14.0 mph WSW22.5 kmh WSW 21.0 mph33.8 kmh 29.51 in999.3 mb 0.00 in0.0 mm 0.00 in/hr0.0 mm/hr 0.01 in0.3 mm
04:20 PM 53.1°F11.7°C 45.8°F7.7°C 76% 14.0 mph WSW22.5 kmh WSW 18.0 mph29.0 kmh 29.51 in999.3 mb 0.00 in0.0 mm 0.00 in/hr0.0 mm/hr 0.01 in0.3 mm
04:30 PM 52.8°F11.6°C 45.8°F7.7°C 77% 10.0 mph NW16.1 kmh NW 18.0 mph29.0 kmh 29.51 in999.3 mb 0.00 in0.0 mm 0.00 in/hr0.0 mm/hr 0.01 in0.3 mm
04:40 PM 52.7°F11.5°C 45.7°F7.6°C 77% 13.0 mph WSW20.9 kmh WSW 22.0 mph35.4 kmh 29.51 in999.3 mb 0.00 in0.0 mm 0.00 in/hr0.0 mm/hr 0.01 in0.3 mm
04:50 PM 52.6°F11.4°C 45.6°F7.6°C 77% 12.0 mph W19.3 kmh W 16.0 mph25.7 kmh 29.52 in999.7 mb 0.00 in0.0 mm 0.00 in/hr0.0 mm/hr 0.01 in0.3 mm
05:00 PM 52.6°F11.4°C 45.6°F7.6°C 77% 15.0 mph N24.1 kmh N 21.0 mph33.8 kmh 29.52 in999.7 mb 0.00 in0.0 mm 0.00 in/hr0.0 mm/hr 0.01 in0.3 mm
05:10 PM 52.4°F11.3°C 45.4°F7.4°C 77% 12.0 mph NW19.3 kmh NW 15.0 mph24.1 kmh 29.52 in999.7 mb 0.00 in0.0 mm 0.00 in/hr0.0 mm/hr 0.01 in0.3 mm
05:20 PM 52.3°F11.3°C 45.3°F7.4°C 77% 10.0 mph SW16.1 kmh SW 15.0 mph24.1 kmh 29.52 in999.7 mb 0.00 in0.0 mm 0.00 in/hr0.0 mm/hr 0.01 in0.3 mm
05:30 PM 51.6°F10.9°C 45.3°F7.4°C 79% 9.0 mph WSW14.5 kmh WSW 15.0 mph24.1 kmh 29.52 in999.7 mb 0.00 in0.0 mm 0.00 in/hr0.0 mm/hr 0.01 in0.3 mm
05:40 PM 49.8°F9.9°C 45.5°F7.5°C 85% 7.0 mph N11.3 kmh N 13.0 mph20.9 kmh 29.52 in999.7 mb 0.00 in0.0 mm 0.00 in/hr0.0 mm/hr 0.01 in0.3 mm
05:50 PM 49.6°F9.8°C 45.6°F7.6°C 86% 9.0 mph WSW14.5 kmh WSW 14.0 mph22.5 kmh 29.52 in999.7 mb 0.00 in0.0 mm 0.00 in/hr0.0 mm/hr 0.01 in0.3 mm
06:00 PM 49.9°F9.9°C 46.2°F7.9°C 87% 9.0 mph NW14.5 kmh NW 20.0 mph32.2 kmh 29.52 in999.7 mb 0.00 in0.0 mm 0.00 in/hr0.0 mm/hr 0.01 in0.3 mm
06:10 PM 50.0°F10.0°C 45.6°F7.6°C 85% 10.0 mph W16.1 kmh W 22.0 mph35.4 kmh 29.52 in999.7 mb 0.00 in0.0 mm 0.00 in/hr0.0 mm/hr 0.01 in0.3 mm
06:20 PM 50.4°F10.2°C 45.1°F7.3°C 82% 12.0 mph WSW19.3 kmh WSW 20.0 mph32.2 kmh 29.52 in999.7 mb 0.00 in0.0 mm 0.00 in/hr0.0 mm/hr 0.01 in0.3 mm
06:30 PM 50.7°F10.4°C 45.1°F7.3°C 81% 14.0 mph WSW22.5 kmh WSW 18.0 mph29.0 kmh 29.52 in999.7 mb 0.01 in0.3 mm 0.06 in/hr1.5 mm/hr 0.02 in0.5 mm
06:40 PM 50.8°F10.4°C 45.5°F7.5°C 82% 13.0 mph WSW20.9 kmh WSW 21.0 mph33.8 kmh 29.53 in1000.0 mb 0.00 in0.0 mm 0.00 in/hr0.0 mm/hr 0.02 in0.5 mm
06:50 PM 50.9°F10.5°C 45.6°F7.6°C 82% 10.0 mph WNW16.1 kmh WNW 24.0 mph38.6 kmh 29.54 in1000.3 mb 0.00 in0.0 mm 0.00 in/hr0.0 mm/hr 0.02 in0.5 mm
07:00 PM 50.8°F10.4°C 44.9°F7.2°C 80% 14.0 mph WNW22.5 kmh WNW 21.0 mph33.8 kmh 29.54 in1000.3 mb 0.00 in0.0 mm 0.00 in/hr0.0 mm/hr 0.02 in0.5 mm
07:10 PM 50.7°F10.4°C 44.4°F6.9°C 79% 12.0 mph SW19.3 kmh SW 18.0 mph29.0 kmh 29.54 in1000.3 mb 0.00 in0.0 mm 0.00 in/hr0.0 mm/hr 0.02 in0.5 mm
07:20 PM 50.3°F10.2°C 44.0°F6.7°C 79% 10.0 mph WNW16.1 kmh WNW 18.0 mph29.0 kmh 29.55 in1000.7 mb 0.00 in0.0 mm 0.00 in/hr0.0 mm/hr 0.02 in0.5 mm
07:30 PM 49.8°F9.9°C 43.9°F6.6°C 80% 8.0 mph W12.9 kmh W 12.0 mph19.3 kmh 29.55 in1000.7 mb 0.00 in0.0 mm 0.00 in/hr0.0 mm/hr 0.02 in0.5 mm
07:40 PM 49.6°F9.8°C 44.0°F6.7°C 81% 10.0 mph W16.1 kmh W 20.0 mph32.2 kmh 29.55 in1000.7 mb 0.00 in0.0 mm 0.00 in/hr0.0 mm/hr 0.02 in0.5 mm
07:50 PM 49.5°F9.7°C 43.6°F6.4°C 80% 9.0 mph WNW14.5 kmh WNW 23.0 mph37.0 kmh 29.56 in1001.0 mb 0.00 in0.0 mm 0.00 in/hr0.0 mm/hr 0.02 in0.5 mm
08:00 PM 49.4°F9.7°C 43.8°F6.6°C 81% 13.0 mph WSW20.9 kmh WSW 17.0 mph27.4 kmh 29.56 in1001.0 mb 0.00 in0.0 mm 0.00 in/hr0.0 mm/hr 0.02 in0.5 mm
08:10 PM 49.2°F9.6°C 43.9°F6.6°C 82% 9.0 mph W14.5 kmh W 20.0 mph32.2 kmh 29.57 in1001.4 mb 0.00 in0.0 mm 0.00 in/hr0.0 mm/hr 0.02 in0.5 mm
08:20 PM 48.9°F9.4°C 44.3°F6.8°C 84% 9.0 mph WSW14.5 kmh WSW 17.0 mph27.4 kmh 29.57 in1001.4 mb 0.00 in0.0 mm 0.00 in/hr0.0 mm/hr 0.02 in0.5 mm
08:30 PM 48.7°F9.3°C 44.1°F6.7°C 84% 13.0 mph WSW20.9 kmh WSW 17.0 mph27.4 kmh 29.57 in1001.4 mb 0.00 in0.0 mm 0.00 in/hr0.0 mm/hr 0.02 in0.5 mm
08:40 PM 48.6°F9.2°C 44.3°F6.8°C 85% 8.0 mph NW12.9 kmh NW 16.0 mph25.7 kmh 29.58 in1001.7 mb 0.00 in0.0 mm 0.00 in/hr0.0 mm/hr 0.02 in0.5 mm
08:50 PM 48.4°F9.1°C 44.1°F6.7°C 85% 12.0 mph NW19.3 kmh NW 17.0 mph27.4 kmh 29.58 in1001.7 mb 0.00 in0.0 mm 0.00 in/hr0.0 mm/hr 0.02 in0.5 mm
09:00 PM 48.2°F9.0°C 44.8°F7.1°C 88% 6.0 mph N9.7 kmh N 15.0 mph24.1 kmh 29.58 in1001.7 mb 0.00 in0.0 mm 0.00 in/hr0.0 mm/hr 0.02 in0.5 mm
09:10 PM 48.0°F8.9°C 44.3°F6.8°C 87% 8.0 mph W12.9 kmh W 12.0 mph19.3 kmh 29.58 in1001.7 mb 0.00 in0.0 mm 0.00 in/hr0.0 mm/hr 0.02 in0.5 mm
09:20 PM 48.0°F8.9°C 44.6°F7.0°C 88% 8.0 mph N12.9 kmh N 18.0 mph29.0 kmh 29.59 in1002.0 mb 0.00 in0.0 mm 0.00 in/hr0.0 mm/hr 0.02 in0.5 mm
09:30 PM 47.8°F8.8°C 45.0°F7.2°C 90% 7.0 mph WSW11.3 kmh WSW 10.0 mph16.1 kmh 29.59 in1002.0 mb 0.02 in0.5 mm 0.12 in/hr3.0 mm/hr 0.04 in1.0 mm
09:40 PM 47.5°F8.6°C 44.7°F7.1°C 90% 12.0 mph N19.3 kmh N 22.0 mph35.4 kmh 29.59 in1002.0 mb 0.00 in0.0 mm 0.00 in/hr0.0 mm/hr 0.04 in1.0 mm
09:50 PM 47.5°F8.6°C 44.5°F6.9°C 89% 10.0 mph WSW16.1 kmh WSW 20.0 mph32.2 kmh 29.61 in1002.7 mb 0.00 in0.0 mm 0.00 in/hr0.0 mm/hr 0.04 in1.0 mm
10:00 PM 47.7°F8.7°C 44.6°F7.0°C 89% 10.0 mph W16.1 kmh W 25.0 mph40.2 kmh 29.61 in1002.7 mb 0.00 in0.0 mm 0.00 in/hr0.0 mm/hr 0.04 in1.0 mm
10:10 PM 47.4°F8.6°C 43.7°F6.5°C 87% 12.0 mph WSW19.3 kmh WSW 20.0 mph32.2 kmh 29.61 in1002.7 mb 0.00 in0.0 mm 0.00 in/hr0.0 mm/hr 0.04 in1.0 mm
10:20 PM 46.8°F8.2°C 43.1°F6.2°C 87% 10.0 mph N16.1 kmh N 22.0 mph35.4 kmh 29.61 in1002.7 mb 0.00 in0.0 mm 0.00 in/hr0.0 mm/hr 0.04 in1.0 mm
10:30 PM 46.7°F8.2°C 43.3°F6.3°C 88% 13.0 mph WSW20.9 kmh WSW 16.0 mph25.7 kmh 29.61 in1002.7 mb 0.00 in0.0 mm 0.00 in/hr0.0 mm/hr 0.04 in1.0 mm
10:40 PM 46.8°F8.2°C 43.8°F6.6°C 89% 9.0 mph WSW14.5 kmh WSW 15.0 mph24.1 kmh 29.62 in1003.0 mb 0.00 in0.0 mm 0.00 in/hr0.0 mm/hr 0.04 in1.0 mm
10:50 PM 46.9°F8.3°C 43.5°F6.4°C 88% 13.0 mph WSW20.9 kmh WSW 22.0 mph35.4 kmh 29.63 in1003.4 mb 0.00 in0.0 mm 0.00 in/hr0.0 mm/hr 0.04 in1.0 mm
11:00 PM 47.1°F8.4°C 43.7°F6.5°C 88% 10.0 mph W16.1 kmh W 17.0 mph27.4 kmh 29.63 in1003.4 mb 0.00 in0.0 mm 0.00 in/hr0.0 mm/hr 0.04 in1.0 mm
11:10 PM 47.0°F8.3°C 43.6°F6.4°C 88% 9.0 mph WSW14.5 kmh WSW 13.0 mph20.9 kmh 29.64 in1003.7 mb 0.00 in0.0 mm 0.00 in/hr0.0 mm/hr 0.04 in1.0 mm
11:20 PM 46.7°F8.2°C 43.3°F6.3°C 88% 10.0 mph WSW16.1 kmh WSW 16.0 mph25.7 kmh 29.65 in1004.1 mb 0.00 in0.0 mm 0.00 in/hr0.0 mm/hr 0.04 in1.0 mm
11:30 PM 46.5°F8.1°C 43.4°F6.3°C 89% 9.0 mph W14.5 kmh W 17.0 mph27.4 kmh 29.65 in1004.1 mb 0.00 in0.0 mm 0.00 in/hr0.0 mm/hr 0.04 in1.0 mm
11:40 PM 46.6°F8.1°C 43.5°F6.4°C 89% 7.0 mph WSW11.3 kmh WSW 13.0 mph20.9 kmh 29.66 in1004.4 mb 0.00 in0.0 mm 0.00 in/hr0.0 mm/hr 0.04 in1.0 mm
11:50 PM 46.6°F8.1°C 43.5°F6.4°C 89% 6.0 mph SW9.7 kmh SW 12.0 mph19.3 kmh 29.67 in1004.7 mb 0.00 in0.0 mm 0.00 in/hr0.0 mm/hr 0.04 in1.0 mm